Pagrindinis puslapis
METAR-TAF:

METAR-TAF

Oro uostai :

Arar, Saudo Arabija

platuma: 30-54N, ilguma: 041-08E, Aukštis: 555 m

Dabartinis oras

Ataskaita buvo paskelbta 13 minutes, ne 06:00 UTC
Vėjas 15 kt iš Šiaurės
Temperatūra 29°C
Drėgmė 23%
Slėgis 1010 hPa
Matomumas 10 km arba daugiau
nėra debesų žemiau 1500 m ir nėra kamuolinių lietaus debesų

METAR: OERR 220600Z 36015KT CAVOK 29/06 Q1010 NOSIG

Laikas: 09:13 (06:13 UTC)

Prognozė

Ataskaita buvo paskelbta 7 valandos ir 13 minutes, ne 23:00 UTC
Prognozė galioja nuo 22 metu 00 UTC su 23 metu 06 UTC
Vėjas 10 kt iš Šiaurės/Šiaurės Vakarų
Matomumas 10 km arba daugiau
nėra debesų žemiau 1500 m ir nėra kamuolinių lietaus debesų
Tapsmas
nuo 22 metu 06 UTC su 22 metu 08 UTC
Vėjas 16 kt iš Šiaurės
Matomumas: 7000 m
Mažai debesys ne aukštis 4000 ft
Tikimybė 30% :
Laikinai
nuo 22 metu 08 UTC su 22 metu 14 UTC
Matomumas: 4000 m
Dulkes pustymas,

TAF: OERR 212300Z 2200/2306 33010KT CAVOK BECMG 2206/2208 36016KT 7000 FEW040 PROB30 TEMPO 2208/2214 4000 BLDU

Orai ataskaitas ir orų prognozės (METAR, TAF).

turimą stotys yra geltonos ir raudonos taškus žemėlapyje.

Perkelti pele per norėdami pamatyti stoties vardą.

Tada spustelėkite, norėdami matyti oro stebėjimo ir prognozės.

Norėdami pakeisti žemėlapį: spustelėkite ant žalios mygtukų su juodo kryžiaus žemyn,; žalią mygtuką su brūkšneliu, jei norite nutolinti; arba žalių rodyklių gretimoms žemėlapius.


METAR-TAF: